sensor_id;sensor_type;location;lat;lon;timestamp;pressure;altitude;pressure_sealevel;temperature;humidity
66857;BME280;53766;50.280;19.160;2022-12-05T00:01:39;98864.16;;;16.20;44.50
66857;BME280;53766;50.280;19.160;2022-12-05T00:04:09;98854.34;;;16.21;44.46
66857;BME280;53766;50.280;19.160;2022-12-05T00:06:39;98852.69;;;16.20;44.64
66857;BME280;53766;50.280;19.160;2022-12-05T00:09:08;98850.03;;;16.20;44.50
66857;BME280;53766;50.280;19.160;2022-12-05T00:11:38;98859.03;;;16.19;44.56
66857;BME280;53766;50.280;19.160;2022-12-05T00:14:07;98852.06;;;16.18;44.35
66857;BME280;53766;50.280;19.160;2022-12-05T00:16:37;98848.41;;;16.19;44.51
66857;BME280;53766;50.280;19.160;2022-12-05T00:19:07;98839.78;;;16.17;44.42
66857;BME280;53766;50.280;19.160;2022-12-05T00:21:36;98836.13;;;16.18;44.37
66857;BME280;53766;50.280;19.160;2022-12-05T00:24:05;98838.97;;;16.16;44.40
66857;BME280;53766;50.280;19.160;2022-12-05T00:26:34;98845.91;;;16.17;44.55
66857;BME280;53766;50.280;19.160;2022-12-05T00:29:02;98839.78;;;16.17;44.48
66857;BME280;53766;50.280;19.160;2022-12-05T00:31:30;98837.75;;;16.19;44.37
66857;BME280;53766;50.280;19.160;2022-12-05T00:34:02;98848.41;;;16.19;44.63
66857;BME280;53766;50.280;19.160;2022-12-05T00:36:33;98847.38;;;16.20;44.36
66857;BME280;53766;50.280;19.160;2022-12-05T00:39:04;98842.72;;;16.22;44.46
66857;BME280;53766;50.280;19.160;2022-12-05T00:41:33;98840.91;;;16.22;44.53
66857;BME280;53766;50.280;19.160;2022-12-05T00:44:02;98840.06;;;16.22;44.49
66857;BME280;53766;50.280;19.160;2022-12-05T00:46:31;98844.38;;;16.23;44.72
66857;BME280;53766;50.280;19.160;2022-12-05T00:48:59;98849.69;;;16.23;44.62
66857;BME280;53766;50.280;19.160;2022-12-05T00:51:33;98833.75;;;16.23;44.35
66857;BME280;53766;50.280;19.160;2022-12-05T00:54:03;98832.06;;;16.22;44.52
66857;BME280;53766;50.280;19.160;2022-12-05T00:56:31;98832.06;;;16.22;44.67
66857;BME280;53766;50.280;19.160;2022-12-05T00:59:00;98828.44;;;16.23;44.62
66857;BME280;53766;50.280;19.160;2022-12-05T01:01:36;98816.78;;;16.24;44.57
66857;BME280;53766;50.280;19.160;2022-12-05T01:04:08;98823.13;;;16.23;44.57
66857;BME280;53766;50.280;19.160;2022-12-05T01:06:37;98819.44;;;16.24;44.58
66857;BME280;53766;50.280;19.160;2022-12-05T01:09:05;98816.78;;;16.24;44.50
66857;BME280;53766;50.280;19.160;2022-12-05T01:11:33;98819.44;;;16.24;44.53
66857;BME280;53766;50.280;19.160;2022-12-05T01:14:08;98828.25;;;16.24;44.47
66857;BME280;53766;50.280;19.160;2022-12-05T01:16:38;98823.94;;;16.23;44.65
66857;BME280;53766;50.280;19.160;2022-12-05T01:19:11;98827.25;;;16.25;44.71
66857;BME280;53766;50.280;19.160;2022-12-05T01:21:39;98815.78;;;16.25;44.73
66857;BME280;53766;50.280;19.160;2022-12-05T01:24:08;98817.81;;;16.23;44.62
66857;BME280;53766;50.280;19.160;2022-12-05T01:26:35;98822.09;;;16.24;44.44
66857;BME280;53766;50.280;19.160;2022-12-05T01:29:03;98828.44;;;16.23;44.62
66857;BME280;53766;50.280;19.160;2022-12-05T01:31:34;98814.13;;;16.24;44.79
66857;BME280;53766;50.280;19.160;2022-12-05T01:34:04;98808.00;;;16.23;44.71
66857;BME280;53766;50.280;19.160;2022-12-05T01:36:33;98804.34;;;16.24;44.62
66857;BME280;53766;50.280;19.160;2022-12-05T01:39:01;98803.50;;;16.24;44.62
66857;BME280;53766;50.280;19.160;2022-12-05T01:41:35;98799.19;;;16.23;44.61
66857;BME280;53766;50.280;19.160;2022-12-05T01:44:56;98791.41;;;16.21;44.65
66857;BME280;53766;50.280;19.160;2022-12-05T01:46:55;98809.81;;;16.23;44.78
66857;BME280;53766;50.280;19.160;2022-12-05T01:49:26;98813.31;;;16.23;44.47
66857;BME280;53766;50.280;19.160;2022-12-05T01:52:00;98812.31;;;16.24;44.66
66857;BME280;53766;50.280;19.160;2022-12-05T01:54:29;98796.53;;;16.23;44.74
66857;BME280;53766;50.280;19.160;2022-12-05T01:57:01;98796.53;;;16.23;44.51
66857;BME280;53766;50.280;19.160;2022-12-05T01:59:31;98794.88;;;16.22;44.62
66857;BME280;53766;50.280;19.160;2022-12-05T02:02:01;98791.22;;;16.23;44.40
66857;BME280;53766;50.280;19.160;2022-12-05T02:04:30;98788.75;;;16.21;44.54
66857;BME280;53766;50.280;19.160;2022-12-05T02:07:01;98777.28;;;16.21;44.56
66857;BME280;53766;50.280;19.160;2022-12-05T02:09:29;98778.94;;;16.22;44.46
66857;BME280;53766;50.280;19.160;2022-12-05T02:11:59;98789.56;;;16.22;44.60
66857;BME280;53766;50.280;19.160;2022-12-05T02:26:13;98816.97;;;16.22;44.36
66857;BME280;53766;50.280;19.160;2022-12-05T02:32:05;98798.56;;;16.21;44.61
66857;BME280;53766;50.280;19.160;2022-12-05T02:34:47;98797.72;;;16.20;44.53
66857;BME280;53766;50.280;19.160;2022-12-05T02:37:26;98810.00;;;16.21;44.54
66857;BME280;53766;50.280;19.160;2022-12-05T02:40:09;98814.50;;;16.21;44.37
66857;BME280;53766;50.280;19.160;2022-12-05T02:45:15;98803.88;;;16.21;44.34
66857;BME280;53766;50.280;19.160;2022-12-05T02:47:48;98808.38;;;16.20;44.58
66857;BME280;53766;50.280;19.160;2022-12-05T02:50:19;98801.38;;;16.19;44.58
66857;BME280;53766;50.280;19.160;2022-12-05T02:52:52;98810.00;;;16.21;44.40
66857;BME280;53766;50.280;19.160;2022-12-05T02:55:22;98814.50;;;16.21;44.42
66857;BME280;53766;50.280;19.160;2022-12-05T02:57:56;98811.84;;;16.21;44.40
66857;BME280;53766;50.280;19.160;2022-12-05T03:00:24;98805.72;;;16.20;44.49
66857;BME280;53766;50.280;19.160;2022-12-05T03:02:57;98804.84;;;16.20;44.24
66857;BME280;53766;50.280;19.160;2022-12-05T03:05:55;98795.25;;;16.19;44.39
66857;BME280;53766;50.280;19.160;2022-12-05T03:08:30;98797.72;;;16.20;44.31
66857;BME280;53766;50.280;19.160;2022-12-05T03:11:00;98811.03;;;16.20;44.46
66857;BME280;53766;50.280;19.160;2022-12-05T03:13:38;98818.16;;;16.20;44.27
66857;BME280;53766;50.280;19.160;2022-12-05T03:16:13;98819.97;;;16.19;44.38
66857;BME280;53766;50.280;19.160;2022-12-05T03:21:55;98809.56;;;16.18;44.38
66857;BME280;53766;50.280;19.160;2022-12-05T03:24:25;98809.56;;;16.18;44.41
66857;BME280;53766;50.280;19.160;2022-12-05T03:27:20;98812.22;;;16.18;44.22
66857;BME280;53766;50.280;19.160;2022-12-05T03:29:52;98814.03;;;16.17;44.32
66857;BME280;53766;50.280;19.160;2022-12-05T03:32:41;98802.56;;;16.17;44.33
66857;BME280;53766;50.280;19.160;2022-12-05T03:38:11;98797.25;;;16.17;44.34
66857;BME280;53766;50.280;19.160;2022-12-05T03:40:58;98819.34;;;16.17;44.34
66857;BME280;53766;50.280;19.160;2022-12-05T03:43:55;98813.19;;;16.17;44.25
66857;BME280;53766;50.280;19.160;2022-12-05T03:51:54;98793.78;;;16.16;44.23
66857;BME280;53766;50.280;19.160;2022-12-05T03:54:33;98796.63;;;16.15;44.16
66857;BME280;53766;50.280;19.160;2022-12-05T03:57:10;98797.25;;;16.17;44.22
66857;BME280;53766;50.280;19.160;2022-12-05T03:59:50;98796.63;;;16.15;44.28
66857;BME280;53766;50.280;19.160;2022-12-05T04:07:52;98787.00;;;16.14;44.24
66857;BME280;53766;50.280;19.160;2022-12-05T04:10:26;98791.47;;;16.13;44.19
66857;BME280;53766;50.280;19.160;2022-12-05T04:12:59;98785.34;;;16.13;44.42
66857;BME280;53766;50.280;19.160;2022-12-05T04:15:50;98781.69;;;16.14;44.35
66857;BME280;53766;50.280;19.160;2022-12-05T04:18:48;98785.16;;;16.14;44.21
66857;BME280;53766;50.280;19.160;2022-12-05T04:21:19;98771.06;;;16.14;44.29
66857;BME280;53766;50.280;19.160;2022-12-05T04:24:10;98769.38;;;16.13;44.30
66857;BME280;53766;50.280;19.160;2022-12-05T04:29:47;98774.72;;;16.13;44.31
66857;BME280;53766;50.280;19.160;2022-12-05T04:32:20;98775.53;;;16.13;44.22
66857;BME280;53766;50.280;19.160;2022-12-05T04:34:54;98770.41;;;16.12;44.04
66857;BME280;53766;50.280;19.160;2022-12-05T04:37:23;98763.25;;;16.12;44.36
66857;BME280;53766;50.280;19.160;2022-12-05T04:39:57;98762.25;;;16.13;44.11
66857;BME280;53766;50.280;19.160;2022-12-05T04:42:28;98751.81;;;16.12;44.10
66857;BME280;53766;50.280;19.160;2022-12-05T04:45:05;98742.00;;;16.12;44.23
66857;BME280;53766;50.280;19.160;2022-12-05T04:47:41;98746.50;;;16.12;44.38
66857;BME280;53766;50.280;19.160;2022-12-05T04:50:13;98743.84;;;16.12;44.10
66857;BME280;53766;50.280;19.160;2022-12-05T04:52:46;98748.50;;;16.10;44.27
66857;BME280;53766;50.280;19.160;2022-12-05T04:55:18;98749.16;;;16.12;44.11
66857;BME280;53766;50.280;19.160;2022-12-05T05:01:02;98741.53;;;16.09;44.23
66857;BME280;53766;50.280;19.160;2022-12-05T05:06:12;98753.00;;;16.09;44.04
66857;BME280;53766;50.280;19.160;2022-12-05T05:08:48;98743.38;;;16.08;44.26
66857;BME280;53766;50.280;19.160;2022-12-05T05:11:22;98751.16;;;16.10;44.13
66857;BME280;53766;50.280;19.160;2022-12-05T05:13:51;98751.34;;;16.08;44.19
66857;BME280;53766;50.280;19.160;2022-12-05T05:18:48;98759.13;;;16.10;44.14
66857;BME280;53766;50.280;19.160;2022-12-05T05:21:28;98753.00;;;16.09;44.00
66857;BME280;53766;50.280;19.160;2022-12-05T05:23:56;98752.16;;;16.09;44.06
66857;BME280;53766;50.280;19.160;2022-12-05T05:26:24;98762.78;;;16.09;43.89
66857;BME280;53766;50.280;19.160;2022-12-05T05:28:52;98776.06;;;16.09;44.23
66857;BME280;53766;50.280;19.160;2022-12-05T05:31:20;98769.75;;;16.10;44.04
66857;BME280;53766;50.280;19.160;2022-12-05T05:33:56;98768.09;;;16.09;44.18
66857;BME280;53766;50.280;19.160;2022-12-05T05:36:25;98776.06;;;16.09;44.11
66857;BME280;53766;50.280;19.160;2022-12-05T05:38:55;98768.09;;;16.09;43.96
66857;BME280;53766;50.280;19.160;2022-12-05T05:41:26;98768.09;;;16.09;43.93
66857;BME280;53766;50.280;19.160;2022-12-05T05:43:55;98757.47;;;16.09;44.00
66857;BME280;53766;50.280;19.160;2022-12-05T05:46:24;98754.16;;;16.07;43.87
66857;BME280;53766;50.280;19.160;2022-12-05T05:48:52;98747.88;;;16.08;44.07
66857;BME280;53766;50.280;19.160;2022-12-05T05:51:21;98748.84;;;16.07;44.11
66857;BME280;53766;50.280;19.160;2022-12-05T05:53:50;98757.84;;;16.06;44.00
66857;BME280;53766;50.280;19.160;2022-12-05T05:56:18;98761.16;;;16.08;44.10
66857;BME280;53766;50.280;19.160;2022-12-05T05:58:58;98748.84;;;16.07;44.17
66857;BME280;53766;50.280;19.160;2022-12-05T06:01:26;98766.47;;;16.08;43.96
66857;BME280;53766;50.280;19.160;2022-12-05T06:03:54;98754.16;;;16.07;44.21
66857;BME280;53766;50.280;19.160;2022-12-05T06:06:22;98759.47;;;16.07;44.03
66857;BME280;53766;50.280;19.160;2022-12-05T06:08:50;98752.53;;;16.06;44.07
66857;BME280;53766;50.280;19.160;2022-12-05T06:11:22;98747.22;;;16.06;44.16
66857;BME280;53766;50.280;19.160;2022-12-05T06:13:57;98756.19;;;16.04;44.01
66857;BME280;53766;50.280;19.160;2022-12-05T06:16:29;98747.22;;;16.06;43.81
66857;BME280;53766;50.280;19.160;2022-12-05T06:18:58;98748.22;;;16.04;43.98
66857;BME280;53766;50.280;19.160;2022-12-05T06:21:26;98742.91;;;16.04;43.97
66857;BME280;53766;50.280;19.160;2022-12-05T06:23:53;98751.50;;;16.07;44.09
66857;BME280;53766;50.280;19.160;2022-12-05T06:26:21;98740.06;;;16.06;44.31
66857;BME280;53766;50.280;19.160;2022-12-05T06:28:49;98748.03;;;16.06;44.40
66857;BME280;53766;50.280;19.160;2022-12-05T06:31:22;98750.69;;;16.06;44.45
66857;BME280;53766;50.280;19.160;2022-12-05T06:33:50;98759.47;;;16.07;44.56
66857;BME280;53766;50.280;19.160;2022-12-05T06:36:20;98749.88;;;16.06;44.51
66857;BME280;53766;50.280;19.160;2022-12-05T06:38:47;98764.78;;;16.07;44.56
66857;BME280;53766;50.280;19.160;2022-12-05T06:41:17;98763.97;;;16.06;44.52
66857;BME280;53766;50.280;19.160;2022-12-05T06:43:45;98755.19;;;16.06;44.51
66857;BME280;53766;50.280;19.160;2022-12-05T06:46:13;98754.53;;;16.03;44.66
66857;BME280;53766;50.280;19.160;2022-12-05T06:48:42;98755.72;;;16.01;44.95
66857;BME280;53766;50.280;19.160;2022-12-05T06:51:11;98762.88;;;16.00;44.60
66857;BME280;53766;50.280;19.160;2022-12-05T06:53:39;98763.88;;;15.99;45.14
66857;BME280;53766;50.280;19.160;2022-12-05T06:56:11;98762.25;;;15.98;44.84
66857;BME280;53766;50.280;19.160;2022-12-05T06:58:41;98772.00;;;15.98;44.86
66857;BME280;53766;50.280;19.160;2022-12-05T07:01:11;98776.22;;;15.92;44.88
66857;BME280;53766;50.280;19.160;2022-12-05T07:03:57;98773.91;;;15.89;44.71
66857;BME280;53766;50.280;19.160;2022-12-05T07:06:25;98773.91;;;15.89;44.38
66857;BME280;53766;50.280;19.160;2022-12-05T07:08:53;98770.44;;;15.89;44.24
66857;BME280;53766;50.280;19.160;2022-12-05T07:11:21;98773.09;;;15.89;44.49
66857;BME280;53766;50.280;19.160;2022-12-05T07:13:49;98776.56;;;15.89;44.37
66857;BME280;53766;50.280;19.160;2022-12-05T07:16:16;98787.41;;;15.88;44.33
66857;BME280;53766;50.280;19.160;2022-12-05T07:18:43;98791.53;;;15.90;44.33
66857;BME280;53766;50.280;19.160;2022-12-05T07:21:13;98792.50;;;15.89;44.35
66857;BME280;53766;50.280;19.160;2022-12-05T07:23:43;98775.75;;;15.89;44.50
66857;BME280;53766;50.280;19.160;2022-12-05T07:26:13;98776.56;;;15.89;44.38
66857;BME280;53766;50.280;19.160;2022-12-05T07:28:41;98773.09;;;15.89;44.59
66857;BME280;53766;50.280;19.160;2022-12-05T07:31:13;98774.94;;;15.88;44.31
66857;BME280;53766;50.280;19.160;2022-12-05T07:33:41;98772.28;;;15.88;44.43
66857;BME280;53766;50.280;19.160;2022-12-05T07:36:14;98776.56;;;15.89;44.61
66857;BME280;53766;50.280;19.160;2022-12-05T07:38:43;98779.22;;;15.89;44.58
66857;BME280;53766;50.280;19.160;2022-12-05T07:41:16;98773.09;;;15.89;44.45
66857;BME280;53766;50.280;19.160;2022-12-05T07:43:46;98772.94;;;15.90;44.58
66857;BME280;53766;50.280;19.160;2022-12-05T07:46:13;98767.63;;;15.90;44.45
66857;BME280;53766;50.280;19.160;2022-12-05T07:48:41;98770.28;;;15.90;44.51
66857;BME280;53766;50.280;19.160;2022-12-05T07:51:08;98769.44;;;15.90;44.40
66857;BME280;53766;50.280;19.160;2022-12-05T07:53:37;98770.28;;;15.90;44.48
66857;BME280;53766;50.280;19.160;2022-12-05T07:56:06;98772.94;;;15.90;44.50
66857;BME280;53766;50.280;19.160;2022-12-05T07:58:35;98769.44;;;15.90;44.60
66857;BME280;53766;50.280;19.160;2022-12-05T08:01:28;98783.56;;;15.90;44.40
66857;BME280;53766;50.280;19.160;2022-12-05T08:03:57;98775.59;;;15.90;44.61
66857;BME280;53766;50.280;19.160;2022-12-05T08:06:27;98772.94;;;15.90;44.50
66857;BME280;53766;50.280;19.160;2022-12-05T08:08:56;98771.91;;;15.91;44.50
66857;BME280;53766;50.280;19.160;2022-12-05T08:11:29;98774.41;;;15.93;44.39
66857;BME280;53766;50.280;19.160;2022-12-05T08:13:57;98763.78;;;15.93;44.46
66857;BME280;53766;50.280;19.160;2022-12-05T08:16:27;98766.59;;;15.91;44.54
66857;BME280;53766;50.280;19.160;2022-12-05T08:18:56;98769.25;;;15.91;44.40
66857;BME280;53766;50.280;19.160;2022-12-05T08:21:24;98789.50;;;15.92;44.35
66857;BME280;53766;50.280;19.160;2022-12-05T08:23:53;98785.84;;;15.93;44.34
66857;BME280;53766;50.280;19.160;2022-12-05T08:26:29;98770.72;;;15.94;44.48
66857;BME280;53766;50.280;19.160;2022-12-05T08:29:04;98753.97;;;15.93;44.36
66857;BME280;53766;50.280;19.160;2022-12-05T08:31:35;98771.56;;;15.94;44.44
66857;BME280;53766;50.280;19.160;2022-12-05T08:34:03;98776.03;;;15.94;44.38
66857;BME280;53766;50.280;19.160;2022-12-05T08:36:31;98785.50;;;15.96;44.32
66857;BME280;53766;50.280;19.160;2022-12-05T08:39:02;98774.88;;;15.96;44.41
66857;BME280;53766;50.280;19.160;2022-12-05T08:41:30;98773.03;;;15.97;44.24
66857;BME280;53766;50.280;19.160;2022-12-05T08:44:00;98772.88;;;15.98;44.15
66857;BME280;53766;50.280;19.160;2022-12-05T08:46:31;98777.31;;;15.98;44.37
66857;BME280;53766;50.280;19.160;2022-12-05T08:48:59;98776.50;;;15.97;44.37
66857;BME280;53766;50.280;19.160;2022-12-05T08:51:27;98773.69;;;15.99;44.43
66857;BME280;53766;50.280;19.160;2022-12-05T08:53:54;98775.31;;;16.00;44.21
66857;BME280;53766;50.280;19.160;2022-12-05T08:56:23;98769.34;;;15.98;44.15
66857;BME280;53766;50.280;19.160;2022-12-05T08:58:54;98774.50;;;15.99;44.29
66857;BME280;53766;50.280;19.160;2022-12-05T09:01:33;98770.22;;;15.98;44.35
66857;BME280;53766;50.280;19.160;2022-12-05T09:04:04;98765.88;;;15.97;44.41
66857;BME280;53766;50.280;19.160;2022-12-05T09:06:32;98765.88;;;15.97;44.25
66857;BME280;53766;50.280;19.160;2022-12-05T09:09:04;98771.19;;;15.97;44.13
66857;BME280;53766;50.280;19.160;2022-12-05T09:11:35;98770.56;;;15.95;44.42
66857;BME280;53766;50.280;19.160;2022-12-05T09:14:03;98774.50;;;15.99;44.18
66857;BME280;53766;50.280;19.160;2022-12-05T09:16:33;98781.47;;;16.00;44.16
66857;BME280;53766;50.280;19.160;2022-12-05T09:19:08;98777.81;;;16.01;44.27
66857;BME280;53766;50.280;19.160;2022-12-05T09:21:37;98774.13;;;16.02;44.34
66857;BME280;53766;50.280;19.160;2022-12-05T09:24:05;98767.81;;;16.03;44.16
66857;BME280;53766;50.280;19.160;2022-12-05T09:26:33;98761.50;;;16.04;44.17
66857;BME280;53766;50.280;19.160;2022-12-05T09:29:01;98764.34;;;16.03;44.22
66857;BME280;53766;50.280;19.160;2022-12-05T09:31:29;98764.16;;;16.04;44.40
66857;BME280;53766;50.280;19.160;2022-12-05T09:33:57;98759.84;;;16.03;44.24
66857;BME280;53766;50.280;19.160;2022-12-05T09:36:27;98759.47;;;16.07;44.24
66857;BME280;53766;50.280;19.160;2022-12-05T09:38:59;98756.81;;;16.07;44.43
66857;BME280;53766;50.280;19.160;2022-12-05T09:44:41;98745.22;;;16.08;44.31
66857;BME280;53766;50.280;19.160;2022-12-05T09:49:58;98742.56;;;16.08;44.32
66857;BME280;53766;50.280;19.160;2022-12-05T09:52:34;98737.06;;;16.09;44.40
66857;BME280;53766;50.280;19.160;2022-12-05T09:55:10;98741.53;;;16.09;44.13
66857;BME280;53766;50.280;19.160;2022-12-05T09:57:43;98729.72;;;16.11;44.22
66857;BME280;53766;50.280;19.160;2022-12-05T10:00:12;98738.69;;;16.10;44.41
66857;BME280;53766;50.280;19.160;2022-12-05T10:03:21;98737.88;;;16.10;44.30
66857;BME280;53766;50.280;19.160;2022-12-05T10:05:42;98735.03;;;16.11;44.27
66857;BME280;53766;50.280;19.160;2022-12-05T10:08:18;98731.38;;;16.12;44.29
66857;BME280;53766;50.280;19.160;2022-12-05T10:16:02;98723.22;;;16.14;44.03
66857;BME280;53766;50.280;19.160;2022-12-05T10:23:44;98733.84;;;16.14;44.23
66857;BME280;53766;50.280;19.160;2022-12-05T10:26:40;98726.88;;;16.13;44.29
66857;BME280;53766;50.280;19.160;2022-12-05T10:31:44;98718.72;;;16.14;44.11
66857;BME280;53766;50.280;19.160;2022-12-05T10:34:20;98724.88;;;16.15;44.17
66857;BME280;53766;50.280;19.160;2022-12-05T10:37:01;98719.38;;;16.16;44.02
66857;BME280;53766;50.280;19.160;2022-12-05T10:39:34;98727.53;;;16.15;44.21
66857;BME280;53766;50.280;19.160;2022-12-05T10:42:02;98721.22;;;16.16;44.13
66857;BME280;53766;50.280;19.160;2022-12-05T10:44:31;98710.59;;;16.16;43.94
66857;BME280;53766;50.280;19.160;2022-12-05T10:47:00;98713.25;;;16.16;44.00
66857;BME280;53766;50.280;19.160;2022-12-05T10:49:28;98710.59;;;16.16;44.15
66857;BME280;53766;50.280;19.160;2022-12-05T10:51:57;98715.91;;;16.16;44.13
66857;BME280;53766;50.280;19.160;2022-12-05T10:54:29;98715.91;;;16.16;43.93
66857;BME280;53766;50.280;19.160;2022-12-05T10:56:58;98715.91;;;16.16;44.00
66857;BME280;53766;50.280;19.160;2022-12-05T10:59:44;98708.56;;;16.18;43.82
66857;BME280;53766;50.280;19.160;2022-12-05T11:02:32;98710.22;;;16.19;43.96
66857;BME280;53766;50.280;19.160;2022-12-05T11:04:59;98704.25;;;16.17;43.98
66857;BME280;53766;50.280;19.160;2022-12-05T11:07:37;98699.59;;;16.19;44.02
66857;BME280;53766;50.280;19.160;2022-12-05T11:10:29;98691.59;;;16.19;44.05
66857;BME280;53766;50.280;19.160;2022-12-05T11:12:59;98694.09;;;16.20;44.00
66857;BME280;53766;50.280;19.160;2022-12-05T11:15:29;98696.75;;;16.20;43.95
66857;BME280;53766;50.280;19.160;2022-12-05T11:18:16;98700.41;;;16.19;43.93
66857;BME280;53766;50.280;19.160;2022-12-05T11:20:44;98701.22;;;16.20;44.04
66857;BME280;53766;50.280;19.160;2022-12-05T11:23:21;98698.75;;;16.18;44.04
66857;BME280;53766;50.280;19.160;2022-12-05T11:25:50;98691.59;;;16.19;44.00
66857;BME280;53766;50.280;19.160;2022-12-05T11:30:56;98687.31;;;16.18;44.02
66857;BME280;53766;50.280;19.160;2022-12-05T11:33:26;98694.66;;;16.16;43.86
66857;BME280;53766;50.280;19.160;2022-12-05T11:35:58;98690.16;;;16.16;44.12
66857;BME280;53766;50.280;19.160;2022-12-05T11:38:28;98689.34;;;16.16;44.01
66857;BME280;53766;50.280;19.160;2022-12-05T11:49:34;98689.34;;;16.16;44.13
66857;BME280;53766;50.280;19.160;2022-12-05T11:55:29;98694.66;;;16.16;44.20
66857;BME280;53766;50.280;19.160;2022-12-05T12:06:27;98697.47;;;16.14;44.19
66857;BME280;53766;50.280;19.160;2022-12-05T12:15:21;98693.63;;;16.17;44.26
66857;BME280;53766;50.280;19.160;2022-12-05T12:24:03;98694.25;;;16.19;44.28
66857;BME280;53766;50.280;19.160;2022-12-05T12:30:05;98686.69;;;16.16;44.12
66857;BME280;53766;50.280;19.160;2022-12-05T12:33:01;98692.63;;;16.18;44.19
66857;BME280;53766;50.280;19.160;2022-12-05T12:35:31;98696.28;;;16.17;44.19
66857;BME280;53766;50.280;19.160;2022-12-05T12:41:11;98685.66;;;16.17;44.42
66857;BME280;53766;50.280;19.160;2022-12-05T12:43:56;98687.66;;;16.15;44.18
66857;BME280;53766;50.280;19.160;2022-12-05T12:47:00;98682.00;;;16.18;44.11
66857;BME280;53766;50.280;19.160;2022-12-05T12:49:50;98684.00;;;16.16;44.07
66857;BME280;53766;50.280;19.160;2022-12-05T12:52:29;98685.66;;;16.17;44.14
66857;BME280;53766;50.280;19.160;2022-12-05T13:03:16;98689.34;;;16.16;44.24
66857;BME280;53766;50.280;19.160;2022-12-05T13:05:53;98682.34;;;16.15;44.06
66857;BME280;53766;50.280;19.160;2022-12-05T13:08:26;98684.00;;;16.16;44.23
66857;BME280;53766;50.280;19.160;2022-12-05T13:10:57;98685.00;;;16.15;44.23
66857;BME280;53766;50.280;19.160;2022-12-05T13:13:29;98685.81;;;16.15;44.11
66857;BME280;53766;50.280;19.160;2022-12-05T13:16:01;98679.69;;;16.15;44.49
66857;BME280;53766;50.280;19.160;2022-12-05T13:18:30;98682.34;;;16.15;44.29
66857;BME280;53766;50.280;19.160;2022-12-05T13:20:59;98681.72;;;16.13;44.19
66857;BME280;53766;50.280;19.160;2022-12-05T13:23:32;98679.06;;;16.13;44.11
66857;BME280;53766;50.280;19.160;2022-12-05T13:26:00;98680.72;;;16.14;44.20
66857;BME280;53766;50.280;19.160;2022-12-05T13:28:52;98672.53;;;16.15;44.32
66857;BME280;53766;50.280;19.160;2022-12-05T13:31:40;98677.22;;;16.13;44.13
66857;BME280;53766;50.280;19.160;2022-12-05T13:36:56;98676.56;;;16.11;44.19
66857;BME280;53766;50.280;19.160;2022-12-05T13:39:51;98683.06;;;16.09;44.07
66857;BME280;53766;50.280;19.160;2022-12-05T13:42:38;98684.09;;;16.08;44.14
66857;BME280;53766;50.280;19.160;2022-12-05T13:45:08;98688.38;;;16.09;44.23
66857;BME280;53766;50.280;19.160;2022-12-05T13:56:02;98691.44;;;16.06;44.44
66857;BME280;53766;50.280;19.160;2022-12-05T14:03:55;98690.78;;;16.03;44.47
66857;BME280;53766;50.280;19.160;2022-12-05T14:17:43;98692.16;;;15.99;44.23
66857;BME280;53766;50.280;19.160;2022-12-05T14:25:55;98694.81;;;15.99;44.21
66857;BME280;53766;50.280;19.160;2022-12-05T14:29:06;98693.16;;;15.98;44.23
66857;BME280;53766;50.280;19.160;2022-12-05T14:34:33;98698.47;;;15.98;44.14
66857;BME280;53766;50.280;19.160;2022-12-05T14:37:22;98702.78;;;15.99;44.16
66857;BME280;53766;50.280;19.160;2022-12-05T14:40:01;98698.66;;;15.97;44.34
66857;BME280;53766;50.280;19.160;2022-12-05T14:42:36;98712.75;;;15.97;44.11
66857;BME280;53766;50.280;19.160;2022-12-05T14:45:27;98703.31;;;15.95;44.27
66857;BME280;53766;50.280;19.160;2022-12-05T14:48:02;98698.00;;;15.95;44.39
66857;BME280;53766;50.280;19.160;2022-12-05T14:50:42;98701.47;;;15.95;44.21
66857;BME280;53766;50.280;19.160;2022-12-05T14:58:36;98689.22;;;15.94;44.28
66857;BME280;53766;50.280;19.160;2022-12-05T15:06:48;98677.94;;;15.92;44.36
66857;BME280;53766;50.280;19.160;2022-12-05T15:17:58;98682.88;;;15.95;44.09
66857;BME280;53766;50.280;19.160;2022-12-05T15:20:47;98682.88;;;15.95;44.28
66857;BME280;53766;50.280;19.160;2022-12-05T15:23:36;98674.75;;;15.97;44.19
66857;BME280;53766;50.280;19.160;2022-12-05T15:26:05;98679.88;;;15.98;44.18
66857;BME280;53766;50.280;19.160;2022-12-05T15:32:05;98677.22;;;15.98;44.14
66857;BME280;53766;50.280;19.160;2022-12-05T15:34:52;98675.56;;;15.97;44.21
66857;BME280;53766;50.280;19.160;2022-12-05T15:37:36;98681.69;;;15.98;44.44
66857;BME280;53766;50.280;19.160;2022-12-05T15:40:15;98674.56;;;15.98;44.28
66857;BME280;53766;50.280;19.160;2022-12-05T15:42:47;98677.22;;;15.98;44.29
66857;BME280;53766;50.280;19.160;2022-12-05T15:45:17;98671.06;;;15.98;44.08
66857;BME280;53766;50.280;19.160;2022-12-05T15:50:50;98666.59;;;15.98;44.23
66857;BME280;53766;50.280;19.160;2022-12-05T15:53:39;98670.25;;;15.97;44.27
66857;BME280;53766;50.280;19.160;2022-12-05T15:59:02;98675.56;;;15.97;44.08
66857;BME280;53766;50.280;19.160;2022-12-05T16:01:32;98677.22;;;15.98;44.11
66857;BME280;53766;50.280;19.160;2022-12-05T16:04:05;98672.91;;;15.97;44.05
66857;BME280;53766;50.280;19.160;2022-12-05T16:06:47;98682.88;;;15.95;44.02
66857;BME280;53766;50.280;19.160;2022-12-05T16:09:19;98682.53;;;15.98;44.21
66857;BME280;53766;50.280;19.160;2022-12-05T16:12:00;98680.88;;;15.97;44.23
66857;BME280;53766;50.280;19.160;2022-12-05T16:14:49;98678.22;;;15.97;44.16
66857;BME280;53766;50.280;19.160;2022-12-05T16:17:28;98675.56;;;15.97;44.25
66857;BME280;53766;50.280;19.160;2022-12-05T16:20:32;98676.38;;;15.98;44.19
66857;BME280;53766;50.280;19.160;2022-12-05T16:23:03;98673.94;;;15.96;44.17